PWSweather.com
Personal Weather Stations
Station Observations
KNHRINDG3
Converse Meadow Pond, Rindge, NH 03461

Converse Meadow PondRindge, NH 03461

Lat: 42.74, Lon: -71.98

Elevation: 1060

Station Type: Davis Vantage Pro 2

http://nhwoodworker.com/weather/index.php

High Low Average
Temperature 86.9°F30.5°F 63.6°F17.6°F 75.6°F24.2°F
Dew Point 69.7°F20.9°F 60.0°F15.6°F 64.3°F17.9°F
Winds 3.5 mph N5.6 mph N Calm Calm 0.8 mph 1.3 mph
Wind Gusts 9.2 mph14.8 mph -- 2.3 mph3.7 mph
Humidity 97% 45% 71%
Pressure 29.87 in1011.50 in 29.73 in1006.80 in -
Precipitation 0.01 in0.30 in - -
Hour Temp Dew Point Humidity Winds Wind Gusts Pressure Precip Precip Rate Daily Precip Total
12:00 AM 72.8°F22.7°C 69.7°F20.9°C 90% Calm Calm 1.2 mph1.9 kmh 29.75 in1007.5 mb - 0.00 in0.0 mm 0.00 in0.0 mm
12:10 AM 72.6°F22.6°C 69.5°F20.8°C 90% Calm Calm 2.3 mph3.7 kmh 29.75 in1007.5 mb - 0.00 in0.0 mm 0.00 in0.0 mm
12:20 AM 72.6°F22.6°C 69.5°F20.8°C 90% Calm Calm 1.2 mph1.9 kmh 29.75 in1007.5 mb - 0.00 in0.0 mm 0.00 in0.0 mm
12:30 AM 72.5°F22.5°C 69.1°F20.6°C 89% Calm Calm 1.2 mph1.9 kmh 29.75 in1007.5 mb - 0.00 in0.0 mm 0.00 in0.0 mm
12:40 AM 72.4°F22.4°C 69.3°F20.7°C 90% Calm Calm -- 29.75 in1007.5 mb - 0.00 in0.0 mm 0.00 in0.0 mm
12:50 AM 71.9°F22.2°C 68.9°F20.5°C 90% Calm Calm -- 29.75 in1007.5 mb - 0.00 in0.0 mm 0.00 in0.0 mm
01:00 AM 71.4°F21.9°C 68.7°F20.4°C 91% Calm Calm -- 29.75 in1007.5 mb - 0.00 in0.0 mm 0.00 in0.0 mm
01:10 AM 71.0°F21.7°C 68.6°F20.3°C 92% Calm Calm 1.2 mph1.9 kmh 29.74 in1007.1 mb - 0.00 in0.0 mm 0.00 in0.0 mm
01:20 AM 70.7°F21.5°C 68.2°F20.1°C 92% Calm Calm -- 29.74 in1007.1 mb - 0.00 in0.0 mm 0.00 in0.0 mm
01:30 AM 70.4°F21.3°C 68.0°F20.0°C 92% Calm Calm 2.3 mph3.7 kmh 29.74 in1007.1 mb - 0.00 in0.0 mm 0.00 in0.0 mm
01:40 AM 70.3°F21.3°C 67.9°F19.9°C 92% Calm Calm -- 29.74 in1007.1 mb - 0.00 in0.0 mm 0.00 in0.0 mm
01:50 AM 70.1°F21.2°C 68.0°F20.0°C 93% Calm Calm 2.3 mph3.7 kmh 29.74 in1007.1 mb - 0.00 in0.0 mm 0.00 in0.0 mm
02:00 AM 69.8°F21.0°C 67.7°F19.8°C 93% Calm Calm -- 29.73 in1006.8 mb - 0.00 in0.0 mm 0.00 in0.0 mm
02:10 AM 69.5°F20.8°C 67.7°F19.8°C 94% Calm Calm -- 29.73 in1006.8 mb - 0.00 in0.0 mm 0.00 in0.0 mm
02:20 AM 69.3°F20.7°C 67.5°F19.7°C 94% Calm Calm 1.2 mph1.9 kmh 29.73 in1006.8 mb - 0.00 in0.0 mm 0.00 in0.0 mm
02:30 AM 69.2°F20.7°C 67.4°F19.7°C 94% Calm Calm -- 29.73 in1006.8 mb - 0.00 in0.0 mm 0.00 in0.0 mm
02:40 AM 69.0°F20.6°C 67.5°F19.7°C 95% Calm Calm -- 29.73 in1006.8 mb - 0.00 in0.0 mm 0.00 in0.0 mm
02:50 AM 69.0°F20.6°C 67.5°F19.7°C 95% Calm Calm 2.3 mph3.7 kmh 29.73 in1006.8 mb - 0.00 in0.0 mm 0.00 in0.0 mm
03:00 AM 68.9°F20.5°C 67.4°F19.7°C 95% Calm Calm -- 29.73 in1006.8 mb - 0.00 in0.0 mm 0.00 in0.0 mm
03:10 AM 68.7°F20.4°C 67.2°F19.6°C 95% Calm Calm 2.3 mph3.7 kmh 29.73 in1006.8 mb - 0.00 in0.0 mm 0.00 in0.0 mm
03:20 AM 68.7°F20.4°C 66.9°F19.4°C 94% Calm Calm 1.2 mph1.9 kmh 29.73 in1006.8 mb - 0.00 in0.0 mm 0.00 in0.0 mm
03:30 AM 68.6°F20.3°C 66.8°F19.3°C 94% 1.2 mph W1.9 kmh W 3.5 mph5.6 kmh 29.73 in1006.8 mb - 0.00 in0.0 mm 0.00 in0.0 mm
03:40 AM 68.6°F20.3°C 66.8°F19.3°C 94% Calm Calm -- 29.73 in1006.8 mb - 0.00 in0.0 mm 0.00 in0.0 mm
03:50 AM 68.6°F20.3°C 66.8°F19.3°C 94% Calm Calm -- 29.73 in1006.8 mb - 0.00 in0.0 mm 0.00 in0.0 mm
04:00 AM 68.5°F20.3°C 66.7°F19.3°C 94% Calm Calm 4.6 mph7.4 kmh 29.74 in1007.1 mb - 0.00 in0.0 mm 0.00 in0.0 mm
04:10 AM 68.3°F20.2°C 66.5°F19.2°C 94% Calm Calm -- 29.74 in1007.1 mb - 0.00 in0.0 mm 0.00 in0.0 mm
04:20 AM 68.1°F20.1°C 66.6°F19.2°C 95% Calm Calm -- 29.74 in1007.1 mb - 0.00 in0.0 mm 0.00 in0.0 mm
04:30 AM 68.0°F20.0°C 66.5°F19.2°C 95% Calm Calm -- 29.75 in1007.5 mb - 0.00 in0.0 mm 0.00 in0.0 mm
04:40 AM 67.9°F19.9°C 66.4°F19.1°C 95% Calm Calm 1.2 mph1.9 kmh 29.75 in1007.5 mb - 0.00 in0.0 mm 0.00 in0.0 mm
04:50 AM 68.1°F20.1°C 66.6°F19.2°C 95% Calm Calm -- 29.75 in1007.5 mb - 0.00 in0.0 mm 0.00 in0.0 mm
05:00 AM 68.1°F20.1°C 66.6°F19.2°C 95% Calm Calm 1.2 mph1.9 kmh 29.75 in1007.5 mb - 0.00 in0.0 mm 0.00 in0.0 mm
05:10 AM 68.1°F20.1°C 66.3°F19.1°C 94% Calm Calm 1.2 mph1.9 kmh 29.75 in1007.5 mb - 0.00 in0.0 mm 0.00 in0.0 mm
05:20 AM 68.0°F20.0°C 66.2°F19.0°C 94% Calm Calm -- 29.76 in1007.8 mb - 0.00 in0.0 mm 0.00 in0.0 mm
05:30 AM 67.5°F19.7°C 65.7°F18.7°C 94% Calm Calm -- 29.76 in1007.8 mb - 0.00 in0.0 mm 0.00 in0.0 mm
05:40 AM 67.0°F19.4°C 65.2°F18.4°C 94% Calm Calm -- 29.76 in1007.8 mb - 0.00 in0.0 mm 0.00 in0.0 mm
05:50 AM 66.6°F19.2°C 65.1°F18.4°C 95% Calm Calm -- 29.77 in1008.1 mb - 0.00 in0.0 mm 0.00 in0.0 mm
06:00 AM 66.2°F19.0°C 65.0°F18.3°C 96% Calm Calm -- 29.77 in1008.1 mb - 0.00 in0.0 mm 0.00 in0.0 mm
06:10 AM 66.1°F18.9°C 64.9°F18.3°C 96% Calm Calm -- 29.77 in1008.1 mb - 0.00 in0.0 mm 0.00 in0.0 mm
06:20 AM 66.0°F18.9°C 64.8°F18.2°C 96% Calm Calm -- 29.77 in1008.1 mb - 0.00 in0.0 mm 0.00 in0.0 mm
06:30 AM 65.8°F18.8°C 64.6°F18.1°C 96% Calm Calm -- 29.78 in1008.5 mb - 0.00 in0.0 mm 0.00 in0.0 mm
06:40 AM 65.6°F18.7°C 64.5°F18.1°C 96% 1.2 mph NNE1.9 kmh NNE 2.3 mph3.7 kmh 29.78 in1008.5 mb - 0.00 in0.0 mm 0.00 in0.0 mm
06:50 AM 65.9°F18.8°C 65.0°F18.3°C 97% Calm Calm -- 29.78 in1008.5 mb - 0.00 in0.0 mm 0.00 in0.0 mm
07:00 AM 66.1°F18.9°C 65.2°F18.4°C 97% Calm Calm -- 29.78 in1008.5 mb - 0.00 in0.0 mm 0.00 in0.0 mm
07:10 AM 66.6°F19.2°C 65.4°F18.6°C 96% Calm Calm -- 29.79 in1008.8 mb - 0.00 in0.0 mm 0.00 in0.0 mm
07:20 AM 66.9°F19.4°C 65.7°F18.7°C 96% Calm Calm -- 29.78 in1008.5 mb - 0.00 in0.0 mm 0.00 in0.0 mm
07:30 AM 67.3°F19.6°C 65.8°F18.8°C 95% Calm Calm -- 29.78 in1008.5 mb - 0.00 in0.0 mm 0.00 in0.0 mm
07:40 AM 68.5°F20.3°C 66.1°F18.9°C 92% Calm Calm -- 29.78 in1008.5 mb - 0.00 in0.0 mm 0.00 in0.0 mm
07:50 AM 69.6°F20.9°C 66.6°F19.2°C 90% Calm Calm -- 29.78 in1008.5 mb - 0.00 in0.0 mm 0.00 in0.0 mm
08:00 AM 70.6°F21.4°C 66.5°F19.2°C 87% Calm Calm -- 29.78 in1008.5 mb - 0.00 in0.0 mm 0.00 in0.0 mm
08:10 AM 71.7°F22.1°C 66.9°F19.4°C 85% Calm Calm -- 29.78 in1008.5 mb - 0.00 in0.0 mm 0.00 in0.0 mm
08:20 AM 72.6°F22.6°C 66.8°F19.3°C 82% 2.3 mph N3.7 kmh N 2.3 mph3.7 kmh 29.78 in1008.5 mb - 0.00 in0.0 mm 0.00 in0.0 mm
08:30 AM 73.3°F22.9°C 66.4°F19.1°C 79% Calm Calm -- 29.78 in1008.5 mb - 0.00 in0.0 mm 0.00 in0.0 mm
08:40 AM 74.0°F23.3°C 66.3°F19.1°C 77% 1.2 mph N1.9 kmh N 1.2 mph1.9 kmh 29.78 in1008.5 mb - 0.00 in0.0 mm 0.00 in0.0 mm
08:50 AM 74.6°F23.7°C 66.1°F18.9°C 75% 1.2 mph SSW1.9 kmh SSW 3.5 mph5.6 kmh 29.78 in1008.5 mb - 0.00 in0.0 mm 0.00 in0.0 mm
09:00 AM 75.1°F23.9°C 66.6°F19.2°C 75% 1.2 mph WSW1.9 kmh WSW 2.3 mph3.7 kmh 29.78 in1008.5 mb - 0.00 in0.0 mm 0.00 in0.0 mm
09:10 AM 75.7°F24.3°C 66.4°F19.1°C 73% 2.3 mph S3.7 kmh S 5.8 mph9.3 kmh 29.78 in1008.5 mb - 0.00 in0.0 mm 0.00 in0.0 mm
09:20 AM 76.5°F24.7°C 66.8°F19.3°C 72% Calm Calm 1.2 mph1.9 kmh 29.77 in1008.1 mb - 0.01 in0.3 mm 0.01 in0.3 mm
09:30 AM 77.4°F25.2°C 66.4°F19.1°C 69% 1.2 mph NE1.9 kmh NE 6.9 mph11.1 kmh 29.77 in1008.1 mb - 0.00 in0.0 mm 0.01 in0.3 mm
09:40 AM 77.6°F25.3°C 66.2°F19.0°C 68% 1.2 mph SSE1.9 kmh SSE 3.5 mph5.6 kmh 29.77 in1008.1 mb - 0.00 in0.0 mm 0.01 in0.3 mm
09:50 AM 78.3°F25.7°C 66.9°F19.4°C 68% 1.2 mph N1.9 kmh N 3.5 mph5.6 kmh 29.77 in1008.1 mb - 0.00 in0.0 mm 0.01 in0.3 mm
10:00 AM 78.3°F25.7°C 65.5°F18.6°C 65% 1.2 mph SE1.9 kmh SE 6.9 mph11.1 kmh 29.77 in1008.1 mb - 0.00 in0.0 mm 0.01 in0.3 mm
10:10 AM 79.2°F26.2°C 64.1°F17.8°C 60% 2.3 mph NE3.7 kmh NE 4.6 mph7.4 kmh 29.77 in1008.1 mb - 0.00 in0.0 mm 0.01 in0.3 mm
10:20 AM 80.1°F26.7°C 64.9°F18.3°C 60% 2.3 mph WSW3.7 kmh WSW 6.9 mph11.1 kmh 29.77 in1008.1 mb - 0.00 in0.0 mm 0.01 in0.3 mm
10:30 AM 80.4°F26.9°C 65.2°F18.4°C 60% 1.2 mph NW1.9 kmh NW 3.5 mph5.6 kmh 29.77 in1008.1 mb - 0.00 in0.0 mm 0.01 in0.3 mm
10:40 AM 80.5°F26.9°C 63.4°F17.4°C 56% 1.2 mph SSE1.9 kmh SSE 3.5 mph5.6 kmh 29.77 in1008.1 mb - 0.00 in0.0 mm 0.01 in0.3 mm
10:50 AM 80.7°F27.1°C 63.0°F17.2°C 55% 2.3 mph N3.7 kmh N 4.6 mph7.4 kmh 29.77 in1008.1 mb - 0.00 in0.0 mm 0.01 in0.3 mm
11:00 AM 80.8°F27.1°C 62.1°F16.7°C 53% 2.3 mph NW3.7 kmh NW 3.5 mph5.6 kmh 29.77 in1008.1 mb - 0.00 in0.0 mm 0.01 in0.3 mm
11:10 AM 81.3°F27.4°C 63.1°F17.3°C 54% 1.2 mph N1.9 kmh N 3.5 mph5.6 kmh 29.77 in1008.1 mb - 0.00 in0.0 mm 0.01 in0.3 mm
11:20 AM 81.9°F27.7°C 64.1°F17.8°C 55% 2.3 mph ESE3.7 kmh ESE 2.3 mph3.7 kmh 29.77 in1008.1 mb - 0.00 in0.0 mm 0.01 in0.3 mm
11:30 AM 82.4°F28.0°C 63.5°F17.5°C 53% 2.3 mph N3.7 kmh N 3.5 mph5.6 kmh 29.77 in1008.1 mb - 0.00 in0.0 mm 0.01 in0.3 mm
11:40 AM 82.5°F28.1°C 63.6°F17.6°C 53% Calm Calm 1.2 mph1.9 kmh 29.77 in1008.1 mb - 0.00 in0.0 mm 0.01 in0.3 mm
11:50 AM 81.4°F27.4°C 62.1°F16.7°C 52% 3.5 mph N5.6 kmh N 8.1 mph13.0 kmh 29.77 in1008.1 mb - 0.00 in0.0 mm 0.01 in0.3 mm
12:00 PM 81.9°F27.7°C 62.5°F16.9°C 52% 2.3 mph WNW3.7 kmh WNW 3.5 mph5.6 kmh 29.78 in1008.5 mb - 0.00 in0.0 mm 0.01 in0.3 mm
12:10 PM 82.8°F28.2°C 61.1°F16.2°C 48% 1.2 mph NW1.9 kmh NW -- 29.78 in1008.5 mb - 0.00 in0.0 mm 0.01 in0.3 mm
12:20 PM 83.5°F28.6°C 62.3°F16.8°C 49% 2.3 mph W3.7 kmh W 4.6 mph7.4 kmh 29.78 in1008.5 mb - 0.00 in0.0 mm 0.01 in0.3 mm
12:30 PM 83.9°F28.8°C 63.3°F17.4°C 50% 2.3 mph WNW3.7 kmh WNW 9.2 mph14.8 kmh 29.77 in1008.1 mb - 0.00 in0.0 mm 0.01 in0.3 mm
12:40 PM 84.1°F28.9°C 62.2°F16.8°C 48% 2.3 mph ESE3.7 kmh ESE 5.8 mph9.3 kmh 29.77 in1008.1 mb - 0.00 in0.0 mm 0.01 in0.3 mm
12:50 PM 84.0°F28.9°C 63.3°F17.4°C 50% 1.2 mph N1.9 kmh N 5.8 mph9.3 kmh 29.77 in1008.1 mb - 0.00 in0.0 mm 0.01 in0.3 mm
01:00 PM 83.8°F28.8°C 63.7°F17.6°C 51% 2.3 mph NW3.7 kmh NW 6.9 mph11.1 kmh 29.78 in1008.5 mb - 0.00 in0.0 mm 0.01 in0.3 mm
01:10 PM 84.4°F29.1°C 63.2°F17.3°C 49% 2.3 mph N3.7 kmh N 4.6 mph7.4 kmh 29.78 in1008.5 mb - 0.00 in0.0 mm 0.01 in0.3 mm
01:20 PM 85.8°F29.9°C 63.3°F17.4°C 47% 2.3 mph NW3.7 kmh NW 5.8 mph9.3 kmh 29.77 in1008.1 mb - 0.00 in0.0 mm 0.01 in0.3 mm
01:30 PM 85.5°F29.7°C 63.5°F17.5°C 48% 3.5 mph NW5.6 kmh NW 5.8 mph9.3 kmh 29.77 in1008.1 mb - 0.00 in0.0 mm 0.01 in0.3 mm
01:40 PM 83.9°F28.8°C 62.7°F17.1°C 49% 3.5 mph NNW5.6 kmh NNW 6.9 mph11.1 kmh 29.77 in1008.1 mb - 0.00 in0.0 mm 0.01 in0.3 mm
01:50 PM 85.0°F29.4°C 63.7°F17.6°C 49% 2.3 mph N3.7 kmh N 3.5 mph5.6 kmh 29.77 in1008.1 mb - 0.00 in0.0 mm 0.01 in0.3 mm
02:00 PM 85.3°F29.6°C 63.9°F17.7°C 49% 3.5 mph SE5.6 kmh SE 4.6 mph7.4 kmh 29.77 in1008.1 mb - 0.00 in0.0 mm 0.01 in0.3 mm
02:10 PM 84.5°F29.2°C 63.3°F17.4°C 49% 2.3 mph NNE3.7 kmh NNE 9.2 mph14.8 kmh 29.77 in1008.1 mb - 0.00 in0.0 mm 0.01 in0.3 mm
02:20 PM 84.1°F28.9°C 64.0°F17.8°C 51% 3.5 mph W5.6 kmh W 9.2 mph14.8 kmh 29.77 in1008.1 mb - 0.00 in0.0 mm 0.01 in0.3 mm
02:30 PM 84.2°F29.0°C 64.1°F17.8°C 51% 1.2 mph NE1.9 kmh NE 4.6 mph7.4 kmh 29.78 in1008.5 mb - 0.00 in0.0 mm 0.01 in0.3 mm
02:40 PM 85.0°F29.4°C 64.9°F18.3°C 51% 2.3 mph NW3.7 kmh NW 3.5 mph5.6 kmh 29.77 in1008.1 mb - 0.00 in0.0 mm 0.01 in0.3 mm
02:50 PM 84.3°F29.1°C 63.6°F17.6°C 50% 1.2 mph NE1.9 kmh NE 3.5 mph5.6 kmh 29.77 in1008.1 mb - 0.00 in0.0 mm 0.01 in0.3 mm
03:00 PM 84.9°F29.4°C 63.1°F17.3°C 48% 2.3 mph SSW3.7 kmh SSW 5.8 mph9.3 kmh 29.78 in1008.5 mb - 0.00 in0.0 mm 0.01 in0.3 mm
03:10 PM 85.7°F29.8°C 63.1°F17.3°C 47% 2.3 mph N3.7 kmh N 6.9 mph11.1 kmh 29.77 in1008.1 mb - 0.00 in0.0 mm 0.01 in0.3 mm
03:20 PM 86.2°F30.1°C 62.4°F16.9°C 45% 2.3 mph NNW3.7 kmh NNW 3.5 mph5.6 kmh 29.77 in1008.1 mb - 0.00 in0.0 mm 0.01 in0.3 mm
03:30 PM 86.8°F30.4°C 62.9°F17.2°C 45% 2.3 mph ESE3.7 kmh ESE 8.1 mph13.0 kmh 29.77 in1008.1 mb - 0.00 in0.0 mm 0.01 in0.3 mm
03:40 PM 86.9°F30.5°C 63.6°F17.6°C 46% 2.3 mph WNW3.7 kmh WNW 3.5 mph5.6 kmh 29.77 in1008.1 mb - 0.00 in0.0 mm 0.01 in0.3 mm
03:50 PM 85.6°F29.8°C 62.4°F16.9°C 46% 3.5 mph NNW5.6 kmh NNW 9.2 mph14.8 kmh 29.77 in1008.1 mb - 0.00 in0.0 mm 0.01 in0.3 mm
04:00 PM 84.0°F28.9°C 62.8°F17.1°C 49% 1.2 mph NW1.9 kmh NW 2.3 mph3.7 kmh 29.77 in1008.1 mb - 0.00 in0.0 mm 0.01 in0.3 mm
04:10 PM 84.0°F28.9°C 62.8°F17.1°C 49% Calm Calm 1.2 mph1.9 kmh 29.77 in1008.1 mb - 0.00 in0.0 mm 0.01 in0.3 mm
04:20 PM 84.4°F29.1°C 62.6°F17.0°C 48% 2.3 mph WNW3.7 kmh WNW 3.5 mph5.6 kmh 29.77 in1008.1 mb - 0.00 in0.0 mm 0.01 in0.3 mm
04:30 PM 85.6°F29.8°C 61.8°F16.6°C 45% 1.2 mph NW1.9 kmh NW 3.5 mph5.6 kmh 29.77 in1008.1 mb - 0.00 in0.0 mm 0.01 in0.3 mm
04:40 PM 85.5°F29.7°C 61.7°F16.5°C 45% Calm Calm 2.3 mph3.7 kmh 29.77 in1008.1 mb - 0.00 in0.0 mm 0.01 in0.3 mm
04:50 PM 84.4°F29.1°C 62.6°F17.0°C 48% Calm Calm 2.3 mph3.7 kmh 29.77 in1008.1 mb - 0.00 in0.0 mm 0.01 in0.3 mm
05:00 PM 83.9°F28.8°C 62.1°F16.7°C 48% 1.2 mph NW1.9 kmh NW 3.5 mph5.6 kmh 29.77 in1008.1 mb - 0.00 in0.0 mm 0.01 in0.3 mm
05:10 PM 84.2°F29.0°C 62.4°F16.9°C 48% 1.2 mph W1.9 kmh W 3.5 mph5.6 kmh 29.77 in1008.1 mb - 0.00 in0.0 mm 0.01 in0.3 mm
05:20 PM 85.2°F29.6°C 62.7°F17.1°C 47% 1.2 mph SW1.9 kmh SW 5.8 mph9.3 kmh 29.77 in1008.1 mb - 0.00 in0.0 mm 0.01 in0.3 mm
05:30 PM 85.5°F29.7°C 61.7°F16.5°C 45% 2.3 mph NW3.7 kmh NW 2.3 mph3.7 kmh 29.77 in1008.1 mb - 0.00 in0.0 mm 0.01 in0.3 mm
05:40 PM 85.7°F29.8°C 62.5°F16.9°C 46% 2.3 mph WSW3.7 kmh WSW 2.3 mph3.7 kmh 29.78 in1008.5 mb - 0.00 in0.0 mm 0.01 in0.3 mm
05:50 PM 85.2°F29.6°C 63.3°F17.4°C 48% Calm Calm 1.2 mph1.9 kmh 29.78 in1008.5 mb - 0.00 in0.0 mm 0.01 in0.3 mm
06:00 PM 85.1°F29.5°C 62.0°F16.7°C 46% 1.2 mph S1.9 kmh S 3.5 mph5.6 kmh 29.78 in1008.5 mb - 0.00 in0.0 mm 0.01 in0.3 mm
06:10 PM 83.9°F28.8°C 62.1°F16.7°C 48% Calm Calm 1.2 mph1.9 kmh 29.78 in1008.5 mb - 0.00 in0.0 mm 0.01 in0.3 mm
06:20 PM 82.9°F28.3°C 62.9°F17.2°C 51% Calm Calm 2.3 mph3.7 kmh 29.78 in1008.5 mb - 0.00 in0.0 mm 0.01 in0.3 mm
06:30 PM 82.4°F28.0°C 62.5°F16.9°C 51% Calm Calm 2.3 mph3.7 kmh 29.78 in1008.5 mb - 0.00 in0.0 mm 0.01 in0.3 mm
06:40 PM 82.0°F27.8°C 62.6°F17.0°C 52% 1.2 mph WNW1.9 kmh WNW 3.5 mph5.6 kmh 29.78 in1008.5 mb - 0.00 in0.0 mm 0.01 in0.3 mm
06:50 PM 81.7°F27.6°C 62.4°F16.9°C 52% 2.3 mph NW3.7 kmh NW 5.8 mph9.3 kmh 29.79 in1008.8 mb - 0.00 in0.0 mm 0.01 in0.3 mm
07:00 PM 81.0°F27.2°C 62.2°F16.8°C 53% 2.3 mph N3.7 kmh N 3.5 mph5.6 kmh 29.79 in1008.8 mb - 0.00 in0.0 mm 0.01 in0.3 mm
07:10 PM 80.4°F26.9°C 62.7°F17.1°C 55% 1.2 mph N1.9 kmh N 3.5 mph5.6 kmh 29.79 in1008.8 mb - 0.00 in0.0 mm 0.01 in0.3 mm
07:20 PM 80.0°F26.7°C 63.4°F17.4°C 57% 1.2 mph NNW1.9 kmh NNW 3.5 mph5.6 kmh 29.80 in1009.1 mb - 0.00 in0.0 mm 0.01 in0.3 mm
07:30 PM 79.7°F26.5°C 64.1°F17.8°C 59% 1.2 mph NW1.9 kmh NW 4.6 mph7.4 kmh 29.80 in1009.1 mb - 0.00 in0.0 mm 0.01 in0.3 mm
07:40 PM 79.5°F26.4°C 63.4°F17.4°C 58% 2.3 mph NNE3.7 kmh NNE 3.5 mph5.6 kmh 29.80 in1009.1 mb - 0.00 in0.0 mm 0.01 in0.3 mm
07:50 PM 79.1°F26.2°C 63.1°F17.3°C 58% Calm Calm 1.2 mph1.9 kmh 29.81 in1009.5 mb - 0.00 in0.0 mm 0.01 in0.3 mm
08:00 PM 78.7°F25.9°C 61.7°F16.5°C 56% 1.2 mph SSW1.9 kmh SSW 2.3 mph3.7 kmh 29.81 in1009.5 mb - 0.00 in0.0 mm 0.01 in0.3 mm
08:10 PM 78.2°F25.7°C 61.7°F16.5°C 57% Calm Calm -- 29.81 in1009.5 mb - 0.00 in0.0 mm 0.01 in0.3 mm
08:20 PM 77.5°F25.3°C 61.6°F16.4°C 58% Calm Calm 3.5 mph5.6 kmh 29.81 in1009.5 mb - 0.00 in0.0 mm 0.01 in0.3 mm
08:30 PM 76.8°F24.9°C 61.9°F16.6°C 60% Calm Calm -- 29.82 in1009.8 mb - 0.00 in0.0 mm 0.01 in0.3 mm
08:40 PM 76.0°F24.4°C 61.6°F16.4°C 61% Calm Calm -- 29.82 in1009.8 mb - 0.00 in0.0 mm 0.01 in0.3 mm
08:50 PM 75.1°F23.9°C 61.7°F16.5°C 63% Calm Calm -- 29.82 in1009.8 mb - 0.00 in0.0 mm 0.01 in0.3 mm
09:00 PM 74.3°F23.5°C 61.8°F16.6°C 65% Calm Calm -- 29.82 in1009.8 mb - 0.00 in0.0 mm 0.01 in0.3 mm
09:10 PM 73.3°F22.9°C 61.7°F16.5°C 67% Calm Calm -- 29.83 in1010.2 mb - 0.00 in0.0 mm 0.01 in0.3 mm
09:20 PM 72.4°F22.4°C 61.7°F16.5°C 69% Calm Calm -- 29.84 in1010.5 mb - 0.00 in0.0 mm 0.01 in0.3 mm
09:30 PM 71.8°F22.1°C 61.4°F16.3°C 70% Calm Calm -- 29.84 in1010.5 mb - 0.00 in0.0 mm 0.01 in0.3 mm
09:40 PM 71.0°F21.7°C 61.6°F16.4°C 72% Calm Calm -- 29.85 in1010.8 mb - 0.00 in0.0 mm 0.01 in0.3 mm
09:50 PM 70.4°F21.3°C 61.3°F16.3°C 73% Calm Calm -- 29.86 in1011.2 mb - 0.00 in0.0 mm 0.01 in0.3 mm
10:00 PM 69.6°F20.9°C 61.3°F16.3°C 75% Calm Calm -- 29.86 in1011.2 mb - 0.00 in0.0 mm 0.01 in0.3 mm
10:10 PM 68.9°F20.5°C 61.4°F16.3°C 77% Calm Calm -- 29.86 in1011.2 mb - 0.00 in0.0 mm 0.01 in0.3 mm
10:20 PM 68.3°F20.2°C 61.2°F16.2°C 78% Calm Calm -- 29.86 in1011.2 mb - 0.00 in0.0 mm 0.01 in0.3 mm
10:30 PM 67.7°F19.8°C 61.0°F16.1°C 79% Calm Calm -- 29.86 in1011.2 mb - 0.00 in0.0 mm 0.01 in0.3 mm
10:40 PM 67.2°F19.6°C 60.8°F16.0°C 80% Calm Calm -- 29.86 in1011.2 mb - 0.00 in0.0 mm 0.01 in0.3 mm
10:50 PM 66.7°F19.3°C 60.6°F15.9°C 81% Calm Calm -- 29.86 in1011.2 mb - 0.00 in0.0 mm 0.01 in0.3 mm
11:00 PM 66.2°F19.0°C 61.2°F16.2°C 84% Calm Calm -- 29.86 in1011.2 mb - 0.00 in0.0 mm 0.01 in0.3 mm
11:10 PM 65.6°F18.7°C 60.7°F15.9°C 84% Calm Calm -- 29.86 in1011.2 mb - 0.00 in0.0 mm 0.01 in0.3 mm
11:20 PM 65.0°F18.3°C 60.4°F15.8°C 85% Calm Calm -- 29.87 in1011.5 mb - 0.00 in0.0 mm 0.01 in0.3 mm
11:30 PM 64.6°F18.1°C 60.3°F15.7°C 86% Calm Calm -- 29.87 in1011.5 mb - 0.00 in0.0 mm 0.01 in0.3 mm
11:40 PM 64.1°F17.8°C 60.2°F15.7°C 87% Calm Calm -- 29.87 in1011.5 mb - 0.00 in0.0 mm 0.01 in0.3 mm
11:50 PM 63.6°F17.6°C 60.0°F15.6°C 88% Calm Calm -- 29.87 in1011.5 mb - 0.00 in0.0 mm 0.01 in0.3 mm